sensor_id;sensor_type;location;lat;lon;timestamp;pressure;altitude;pressure_sealevel;temperature;humidity
64139;BME280;50435;43.700;-79.318;2023-05-02T00:00:55;97546.31;;;8.96;46.96
64139;BME280;50435;43.700;-79.318;2023-05-02T00:03:22;97549.28;;;10.42;47.01
64139;BME280;50435;43.700;-79.318;2023-05-02T00:05:50;97553.15;;;9.39;47.20
64139;BME280;50435;43.700;-79.318;2023-05-02T00:08:18;97560.31;;;10.10;47.05
64139;BME280;50435;43.700;-79.318;2023-05-02T00:10:45;97562.49;;;10.30;47.47
64139;BME280;50435;43.700;-79.318;2023-05-02T00:13:12;97566.69;;;9.94;47.33
64139;BME280;50435;43.700;-79.318;2023-05-02T00:15:39;97570.28;;;10.44;47.42
64139;BME280;50435;43.700;-79.318;2023-05-02T00:18:07;97567.27;;;9.96;47.34
64139;BME280;50435;43.700;-79.318;2023-05-02T00:20:35;97568.51;;;10.13;47.56
64139;BME280;50435;43.700;-79.318;2023-05-02T00:23:03;97569.71;;;9.41;47.95
64139;BME280;50435;43.700;-79.318;2023-05-02T00:25:31;97572.18;;;10.26;47.71
64139;BME280;50435;43.700;-79.318;2023-05-02T00:27:59;97573.30;;;9.09;48.06
64139;BME280;50435;43.700;-79.318;2023-05-02T00:30:26;97579.44;;;10.02;47.99
64139;BME280;50435;43.700;-79.318;2023-05-02T00:32:53;97579.02;;;9.37;47.85
64139;BME280;50435;43.700;-79.318;2023-05-02T00:35:20;97583.20;;;9.60;48.31
64139;BME280;50435;43.700;-79.318;2023-05-02T00:37:48;97580.57;;;9.32;47.92
64139;BME280;50435;43.700;-79.318;2023-05-02T00:40:16;97582.56;;;9.82;48.09
64139;BME280;50435;43.700;-79.318;2023-05-02T00:42:44;97588.23;;;7.39;48.33
64139;BME280;50435;43.700;-79.318;2023-05-02T00:45:12;97583.87;;;10.24;46.78
64139;BME280;50435;43.700;-79.318;2023-05-02T00:47:39;97587.22;;;10.05;47.61
64139;BME280;50435;43.700;-79.318;2023-05-02T00:50:07;97588.83;;;8.87;47.97
64139;BME280;50435;43.700;-79.318;2023-05-02T00:52:34;97590.83;;;9.96;48.16
64139;BME280;50435;43.700;-79.318;2023-05-02T00:55:04;97589.80;;;8.52;48.24
64139;BME280;50435;43.700;-79.318;2023-05-02T00:57:33;97595.12;;;9.92;48.32
64139;BME280;50435;43.700;-79.318;2023-05-02T01:00:00;97592.28;;;8.34;48.25
64139;BME280;50435;43.700;-79.318;2023-05-02T01:02:36;97593.01;;;9.66;48.26
64139;BME280;50435;43.700;-79.318;2023-05-02T01:05:13;97598.07;;;8.87;48.49
64139;BME280;50435;43.700;-79.318;2023-05-02T01:07:53;97597.11;;;9.67;48.71
64139;BME280;50435;43.700;-79.318;2023-05-02T01:10:36;97598.69;;;9.47;48.63
64139;BME280;50435;43.700;-79.318;2023-05-02T01:13:08;97603.73;;;8.60;48.90
64139;BME280;50435;43.700;-79.318;2023-05-02T01:15:40;97602.79;;;9.50;49.00
64139;BME280;50435;43.700;-79.318;2023-05-02T01:18:09;97606.36;;;8.51;48.90
64139;BME280;50435;43.700;-79.318;2023-05-02T01:20:41;97603.48;;;9.37;48.97
64139;BME280;50435;43.700;-79.318;2023-05-02T01:23:27;97605.08;;;9.10;49.03
64139;BME280;50435;43.700;-79.318;2023-05-02T01:26:12;97607.53;;;8.39;48.95
64139;BME280;50435;43.700;-79.318;2023-05-02T01:28:58;97610.44;;;9.32;48.82
64139;BME280;50435;43.700;-79.318;2023-05-02T01:31:30;97617.95;;;9.39;48.73
64139;BME280;50435;43.700;-79.318;2023-05-02T01:33:59;97618.16;;;8.02;48.99
64139;BME280;50435;43.700;-79.318;2023-05-02T01:36:30;97622.37;;;9.26;48.69
64139;BME280;50435;43.700;-79.318;2023-05-02T01:39:00;97625.44;;;8.17;49.08
64139;BME280;50435;43.700;-79.318;2023-05-02T01:41:30;97626.62;;;8.87;48.98
64139;BME280;50435;43.700;-79.318;2023-05-02T01:44:00;97627.71;;;7.98;48.82
64139;BME280;50435;43.700;-79.318;2023-05-02T01:46:31;97633.12;;;9.11;48.90
64139;BME280;50435;43.700;-79.318;2023-05-02T01:49:02;97633.09;;;7.64;49.01
64139;BME280;50435;43.700;-79.318;2023-05-02T01:51:32;97637.62;;;9.02;49.07
64139;BME280;50435;43.700;-79.318;2023-05-02T01:54:03;97632.10;;;7.85;48.88
64139;BME280;50435;43.700;-79.318;2023-05-02T01:56:32;97633.59;;;9.05;48.82
64139;BME280;50435;43.700;-79.318;2023-05-02T01:59:02;97629.47;;;7.48;49.20
64139;BME280;50435;43.700;-79.318;2023-05-02T02:01:31;97632.07;;;8.95;48.92
64139;BME280;50435;43.700;-79.318;2023-05-02T02:04:01;97636.74;;;7.40;48.77
64139;BME280;50435;43.700;-79.318;2023-05-02T02:06:30;97637.02;;;9.10;49.06
64139;BME280;50435;43.700;-79.318;2023-05-02T02:08:57;97628.79;;;7.97;48.88
64139;BME280;50435;43.700;-79.318;2023-05-02T02:11:32;97632.49;;;8.72;49.14
64139;BME280;50435;43.700;-79.318;2023-05-02T02:14:05;97633.11;;;7.38;49.19
64139;BME280;50435;43.700;-79.318;2023-05-02T02:16:37;97635.01;;;8.64;49.19
64139;BME280;50435;43.700;-79.318;2023-05-02T02:19:07;97637.03;;;7.67;49.09
64139;BME280;50435;43.700;-79.318;2023-05-02T02:21:37;97631.37;;;8.56;49.00
64139;BME280;50435;43.700;-79.318;2023-05-02T02:24:06;97626.60;;;7.58;49.23
64139;BME280;50435;43.700;-79.318;2023-05-02T02:26:35;97626.41;;;8.40;49.39
64139;BME280;50435;43.700;-79.318;2023-05-02T02:29:03;97627.05;;;7.43;48.97
64139;BME280;50435;43.700;-79.318;2023-05-02T02:31:31;97628.40;;;8.93;49.10
64139;BME280;50435;43.700;-79.318;2023-05-02T02:34:00;97626.44;;;7.16;49.32
64139;BME280;50435;43.700;-79.318;2023-05-02T02:36:30;97623.52;;;8.49;48.84
64139;BME280;50435;43.700;-79.318;2023-05-02T02:39:10;97623.64;;;7.46;49.26
64139;BME280;50435;43.700;-79.318;2023-05-02T02:41:44;97621.37;;;8.86;48.88
64139;BME280;50435;43.700;-79.318;2023-05-02T02:44:25;97617.69;;;7.96;49.66
64139;BME280;50435;43.700;-79.318;2023-05-02T02:47:04;97616.51;;;7.98;49.41
64139;BME280;50435;43.700;-79.318;2023-05-02T02:49:42;97615.34;;;8.07;49.77
64139;BME280;50435;43.700;-79.318;2023-05-02T02:52:19;97608.64;;;7.01;50.08
64139;BME280;50435;43.700;-79.318;2023-05-02T02:54:51;97613.49;;;8.58;49.53
64139;BME280;50435;43.700;-79.318;2023-05-02T02:57:28;97617.09;;;8.08;49.69
64139;BME280;50435;43.700;-79.318;2023-05-02T03:00:06;97619.97;;;7.04;49.94
64139;BME280;50435;43.700;-79.318;2023-05-02T03:02:35;97616.51;;;7.87;50.12
64139;BME280;50435;43.700;-79.318;2023-05-02T03:05:04;97614.91;;;6.82;49.89
64139;BME280;50435;43.700;-79.318;2023-05-02T03:07:32;97611.85;;;8.25;50.35
64139;BME280;50435;43.700;-79.318;2023-05-02T03:10:02;97610.35;;;6.90;50.20
64139;BME280;50435;43.700;-79.318;2023-05-02T03:12:30;97611.59;;;7.90;49.89
64139;BME280;50435;43.700;-79.318;2023-05-02T03:15:08;97606.89;;;7.43;50.05
64139;BME280;50435;43.700;-79.318;2023-05-02T03:17:39;97604.65;;;8.19;49.94
64139;BME280;50435;43.700;-79.318;2023-05-02T03:20:06;97606.25;;;7.26;49.70
64139;BME280;50435;43.700;-79.318;2023-05-02T03:22:34;97605.81;;;8.19;49.81
64139;BME280;50435;43.700;-79.318;2023-05-02T03:25:01;97604.57;;;6.96;50.06
64139;BME280;50435;43.700;-79.318;2023-05-02T03:27:28;97601.60;;;8.38;49.81
64139;BME280;50435;43.700;-79.318;2023-05-02T03:29:56;97604.02;;;7.68;50.03
64139;BME280;50435;43.700;-79.318;2023-05-02T03:32:23;97597.88;;;8.30;49.95
64139;BME280;50435;43.700;-79.318;2023-05-02T03:34:50;97597.36;;;8.27;50.08
64139;BME280;50435;43.700;-79.318;2023-05-02T03:37:17;97593.50;;;7.88;49.80
64139;BME280;50435;43.700;-79.318;2023-05-02T03:39:44;97594.28;;;8.32;49.88
64139;BME280;50435;43.700;-79.318;2023-05-02T03:42:11;97592.82;;;7.77;50.01
64139;BME280;50435;43.700;-79.318;2023-05-02T03:44:38;97590.86;;;8.20;50.15
64139;BME280;50435;43.700;-79.318;2023-05-02T03:47:06;97588.32;;;6.31;50.09
64139;BME280;50435;43.700;-79.318;2023-05-02T03:49:34;97584.55;;;7.84;49.76
64139;BME280;50435;43.700;-79.318;2023-05-02T03:52:01;97583.38;;;6.67;49.80
64139;BME280;50435;43.700;-79.318;2023-05-02T03:54:31;97581.88;;;7.80;49.91
64139;BME280;50435;43.700;-79.318;2023-05-02T03:56:59;97583.52;;;7.14;49.73
64139;BME280;50435;43.700;-79.318;2023-05-02T03:59:26;97580.99;;;8.11;49.92
64139;BME280;50435;43.700;-79.318;2023-05-02T04:01:53;97580.61;;;8.20;50.16
64139;BME280;50435;43.700;-79.318;2023-05-02T04:04:20;97582.46;;;7.77;50.00
64139;BME280;50435;43.700;-79.318;2023-05-02T04:06:48;97576.42;;;8.25;50.14
64139;BME280;50435;43.700;-79.318;2023-05-02T04:09:15;97579.98;;;7.64;50.47
64139;BME280;50435;43.700;-79.318;2023-05-02T04:11:42;97578.62;;;8.25;50.17
64139;BME280;50435;43.700;-79.318;2023-05-02T04:14:09;97578.26;;;7.12;50.57
64139;BME280;50435;43.700;-79.318;2023-05-02T04:16:37;97577.44;;;8.08;50.48
64139;BME280;50435;43.700;-79.318;2023-05-02T04:19:04;97577.61;;;6.65;50.38
64139;BME280;50435;43.700;-79.318;2023-05-02T04:21:31;97574.56;;;8.19;50.07
64139;BME280;50435;43.700;-79.318;2023-05-02T04:23:58;97579.70;;;7.01;50.00
64139;BME280;50435;43.700;-79.318;2023-05-02T04:26:25;97574.67;;;7.83;49.69
64139;BME280;50435;43.700;-79.318;2023-05-02T04:28:53;97575.73;;;8.16;50.24
64139;BME280;50435;43.700;-79.318;2023-05-02T04:31:20;97577.06;;;7.66;50.25
64139;BME280;50435;43.700;-79.318;2023-05-02T04:33:48;97584.10;;;8.01;50.63
64139;BME280;50435;43.700;-79.318;2023-05-02T04:36:15;97581.81;;;7.53;50.60
64139;BME280;50435;43.700;-79.318;2023-05-02T04:38:43;97580.26;;;8.08;50.37
64139;BME280;50435;43.700;-79.318;2023-05-02T04:41:10;97584.42;;;7.65;50.44
64139;BME280;50435;43.700;-79.318;2023-05-02T04:43:39;97584.48;;;7.96;50.79
64139;BME280;50435;43.700;-79.318;2023-05-02T04:46:06;97583.42;;;7.33;50.59
64139;BME280;50435;43.700;-79.318;2023-05-02T04:48:33;97586.19;;;8.01;50.71
64139;BME280;50435;43.700;-79.318;2023-05-02T04:51:00;97583.73;;;6.56;50.61
64139;BME280;50435;43.700;-79.318;2023-05-02T04:53:27;97582.20;;;8.20;50.06
64139;BME280;50435;43.700;-79.318;2023-05-02T04:55:55;97581.53;;;7.59;50.51
64139;BME280;50435;43.700;-79.318;2023-05-02T04:58:23;97584.52;;;7.53;50.53
64139;BME280;50435;43.700;-79.318;2023-05-02T05:00:51;97585.81;;;7.96;50.65
64139;BME280;50435;43.700;-79.318;2023-05-02T05:03:19;97582.21;;;7.41;50.97
64139;BME280;50435;43.700;-79.318;2023-05-02T05:05:47;97584.78;;;7.96;50.48
64139;BME280;50435;43.700;-79.318;2023-05-02T05:08:15;97589.54;;;7.42;51.01
64139;BME280;50435;43.700;-79.318;2023-05-02T05:10:42;97582.36;;;7.86;50.96
64139;BME280;50435;43.700;-79.318;2023-05-02T05:13:09;97581.83;;;7.21;50.90
64139;BME280;50435;43.700;-79.318;2023-05-02T05:15:37;97581.03;;;8.11;51.00
64139;BME280;50435;43.700;-79.318;2023-05-02T05:18:04;97577.62;;;6.58;50.72
64139;BME280;50435;43.700;-79.318;2023-05-02T05:20:31;97577.57;;;7.84;51.03
64139;BME280;50435;43.700;-79.318;2023-05-02T05:22:59;97583.66;;;6.92;50.91
64139;BME280;50435;43.700;-79.318;2023-05-02T05:25:26;97580.81;;;7.91;50.86
64139;BME280;50435;43.700;-79.318;2023-05-02T05:27:54;97578.04;;;7.82;51.11
64139;BME280;50435;43.700;-79.318;2023-05-02T05:30:21;97581.10;;;7.70;51.03
64139;BME280;50435;43.700;-79.318;2023-05-02T05:32:49;97582.54;;;8.09;50.99
64139;BME280;50435;43.700;-79.318;2023-05-02T05:35:16;97583.53;;;7.21;51.41
64139;BME280;50435;43.700;-79.318;2023-05-02T05:37:44;97584.08;;;7.88;50.87
64139;BME280;50435;43.700;-79.318;2023-05-02T05:40:12;97584.09;;;7.28;51.15
64139;BME280;50435;43.700;-79.318;2023-05-02T05:42:39;97581.85;;;7.82;51.17
64139;BME280;50435;43.700;-79.318;2023-05-02T05:45:07;97578.82;;;6.02;51.41
64139;BME280;50435;43.700;-79.318;2023-05-02T05:47:35;97577.51;;;7.67;51.51
64139;BME280;50435;43.700;-79.318;2023-05-02T05:50:03;97574.86;;;6.13;51.96
64139;BME280;50435;43.700;-79.318;2023-05-02T05:52:30;97574.84;;;7.68;51.42
64139;BME280;50435;43.700;-79.318;2023-05-02T05:54:57;97572.61;;;6.81;51.18
64139;BME280;50435;43.700;-79.318;2023-05-02T05:57:25;97568.35;;;7.20;51.57
64139;BME280;50435;43.700;-79.318;2023-05-02T05:59:53;97567.42;;;7.56;51.66
64139;BME280;50435;43.700;-79.318;2023-05-02T06:02:20;97566.62;;;7.82;51.09
64139;BME280;50435;43.700;-79.318;2023-05-02T06:04:47;97565.44;;;7.46;51.37
64139;BME280;50435;43.700;-79.318;2023-05-02T06:07:14;97562.16;;;7.16;51.47
64139;BME280;50435;43.700;-79.318;2023-05-02T06:09:41;97561.59;;;7.77;51.18
64139;BME280;50435;43.700;-79.318;2023-05-02T06:12:09;97556.96;;;7.15;51.56
64139;BME280;50435;43.700;-79.318;2023-05-02T06:14:36;97554.29;;;7.73;51.40
64139;BME280;50435;43.700;-79.318;2023-05-02T06:17:05;97558.21;;;6.16;51.07
64139;BME280;50435;43.700;-79.318;2023-05-02T06:19:32;97558.67;;;7.61;51.17
64139;BME280;50435;43.700;-79.318;2023-05-02T06:22:00;97551.81;;;6.86;51.04
64139;BME280;50435;43.700;-79.318;2023-05-02T06:24:27;97548.99;;;7.49;51.28
64139;BME280;50435;43.700;-79.318;2023-05-02T06:26:54;97550.02;;;7.72;51.38
64139;BME280;50435;43.700;-79.318;2023-05-02T06:29:21;97547.01;;;7.57;51.69
64139;BME280;50435;43.700;-79.318;2023-05-02T06:31:49;97546.57;;;7.69;51.93
64139;BME280;50435;43.700;-79.318;2023-05-02T06:34:16;97545.54;;;6.99;51.70
64139;BME280;50435;43.700;-79.318;2023-05-02T06:36:43;97538.48;;;7.70;51.28
64139;BME280;50435;43.700;-79.318;2023-05-02T06:39:10;97535.68;;;6.90;51.52
64139;BME280;50435;43.700;-79.318;2023-05-02T06:41:37;97533.43;;;7.69;51.27
64139;BME280;50435;43.700;-79.318;2023-05-02T06:44:04;97529.79;;;6.24;51.41
64139;BME280;50435;43.700;-79.318;2023-05-02T06:46:32;97531.86;;;7.67;51.35
64139;BME280;50435;43.700;-79.318;2023-05-02T06:48:59;97532.78;;;6.19;51.46
64139;BME280;50435;43.700;-79.318;2023-05-02T06:51:27;97531.25;;;7.75;51.11
64139;BME280;50435;43.700;-79.318;2023-05-02T06:53:54;97527.31;;;7.43;50.59
64139;BME280;50435;43.700;-79.318;2023-05-02T06:56:22;97527.46;;;7.57;50.88
64139;BME280;50435;43.700;-79.318;2023-05-02T06:58:50;97527.21;;;7.73;51.70
64139;BME280;50435;43.700;-79.318;2023-05-02T07:01:18;97524.68;;;6.99;51.73
64139;BME280;50435;43.700;-79.318;2023-05-02T07:03:46;97524.73;;;7.54;51.45
64139;BME280;50435;43.700;-79.318;2023-05-02T07:06:13;97525.20;;;7.52;51.58
64139;BME280;50435;43.700;-79.318;2023-05-02T07:08:40;97524.32;;;7.50;51.67
64139;BME280;50435;43.700;-79.318;2023-05-02T07:11:07;97525.04;;;6.91;51.76
64139;BME280;50435;43.700;-79.318;2023-05-02T07:13:34;97528.09;;;7.38;52.01
64139;BME280;50435;43.700;-79.318;2023-05-02T07:16:01;97525.96;;;6.20;51.74
64139;BME280;50435;43.700;-79.318;2023-05-02T07:18:29;97530.33;;;6.80;52.03
64139;BME280;50435;43.700;-79.318;2023-05-02T07:20:56;97527.33;;;6.87;51.41
64139;BME280;50435;43.700;-79.318;2023-05-02T07:23:24;97529.22;;;7.36;51.36
64139;BME280;50435;43.700;-79.318;2023-05-02T07:25:51;97529.83;;;7.50;51.48
64139;BME280;50435;43.700;-79.318;2023-05-02T07:28:18;97537.31;;;6.74;52.00
64139;BME280;50435;43.700;-79.318;2023-05-02T07:30:46;97536.87;;;7.42;51.56
64139;BME280;50435;43.700;-79.318;2023-05-02T07:33:14;97537.55;;;6.97;51.53
64139;BME280;50435;43.700;-79.318;2023-05-02T07:35:41;97537.64;;;7.68;51.50
64139;BME280;50435;43.700;-79.318;2023-05-02T07:38:09;97541.44;;;6.92;51.63
64139;BME280;50435;43.700;-79.318;2023-05-02T07:40:36;97542.71;;;7.25;52.03
64139;BME280;50435;43.700;-79.318;2023-05-02T07:43:04;97544.87;;;5.86;51.92
64139;BME280;50435;43.700;-79.318;2023-05-02T07:45:31;97544.41;;;7.33;51.85
64139;BME280;50435;43.700;-79.318;2023-05-02T07:47:59;97541.62;;;6.40;51.88
64139;BME280;50435;43.700;-79.318;2023-05-02T07:50:26;97544.49;;;7.40;51.66
64139;BME280;50435;43.700;-79.318;2023-05-02T07:52:54;97544.71;;;7.42;51.67
64139;BME280;50435;43.700;-79.318;2023-05-02T07:55:22;97542.96;;;7.33;51.86
64139;BME280;50435;43.700;-79.318;2023-05-02T07:57:49;97546.10;;;7.48;52.04
64139;BME280;50435;43.700;-79.318;2023-05-02T08:00:17;97542.96;;;6.80;52.05
64139;BME280;50435;43.700;-79.318;2023-05-02T08:02:45;97541.99;;;7.37;51.72
64139;BME280;50435;43.700;-79.318;2023-05-02T08:05:12;97543.01;;;6.91;51.64
64139;BME280;50435;43.700;-79.318;2023-05-02T08:07:39;97548.31;;;7.45;51.51
64139;BME280;50435;43.700;-79.318;2023-05-02T08:10:08;97550.02;;;6.74;52.08
64139;BME280;50435;43.700;-79.318;2023-05-02T08:12:37;97545.94;;;7.17;52.12
64139;BME280;50435;43.700;-79.318;2023-05-02T08:15:07;97547.45;;;5.61;51.96
64139;BME280;50435;43.700;-79.318;2023-05-02T08:17:36;97546.10;;;7.23;52.08
64139;BME280;50435;43.700;-79.318;2023-05-02T08:20:05;97551.52;;;5.81;51.98
64139;BME280;50435;43.700;-79.318;2023-05-02T08:22:33;97549.04;;;7.30;51.90
64139;BME280;50435;43.700;-79.318;2023-05-02T08:25:00;97554.89;;;6.12;51.80
64139;BME280;50435;43.700;-79.318;2023-05-02T08:27:27;97558.06;;;7.44;52.03
64139;BME280;50435;43.700;-79.318;2023-05-02T08:29:55;97560.14;;;6.68;52.22
64139;BME280;50435;43.700;-79.318;2023-05-02T08:32:22;97562.82;;;6.66;52.11
64139;BME280;50435;43.700;-79.318;2023-05-02T08:34:49;97561.32;;;7.38;51.81
64139;BME280;50435;43.700;-79.318;2023-05-02T08:37:16;97566.82;;;6.71;52.00
64139;BME280;50435;43.700;-79.318;2023-05-02T08:39:43;97571.11;;;7.22;51.81
64139;BME280;50435;43.700;-79.318;2023-05-02T08:42:11;97571.02;;;6.40;52.18
64139;BME280;50435;43.700;-79.318;2023-05-02T08:44:39;97572.21;;;7.23;52.40
64139;BME280;50435;43.700;-79.318;2023-05-02T08:47:09;97572.19;;;5.57;52.38
64139;BME280;50435;43.700;-79.318;2023-05-02T08:49:41;97569.34;;;7.05;52.11
64139;BME280;50435;43.700;-79.318;2023-05-02T08:52:08;97566.06;;;6.56;52.24
64139;BME280;50435;43.700;-79.318;2023-05-02T08:54:37;97570.10;;;7.03;52.23
64139;BME280;50435;43.700;-79.318;2023-05-02T08:57:05;97570.53;;;5.64;52.04
64139;BME280;50435;43.700;-79.318;2023-05-02T08:59:32;97572.68;;;7.38;51.30
64139;BME280;50435;43.700;-79.318;2023-05-02T09:02:11;97576.13;;;6.04;52.19
64139;BME280;50435;43.700;-79.318;2023-05-02T09:04:40;97577.37;;;7.23;51.61
64139;BME280;50435;43.700;-79.318;2023-05-02T09:07:09;97576.42;;;6.31;52.07
64139;BME280;50435;43.700;-79.318;2023-05-02T09:09:36;97578.17;;;7.15;51.76
64139;BME280;50435;43.700;-79.318;2023-05-02T09:12:04;97582.97;;;6.77;51.63
64139;BME280;50435;43.700;-79.318;2023-05-02T09:14:32;97581.30;;;6.88;52.23
64139;BME280;50435;43.700;-79.318;2023-05-02T09:17:00;97584.35;;;6.24;51.64
64139;BME280;50435;43.700;-79.318;2023-05-02T09:19:28;97587.36;;;7.18;51.62
64139;BME280;50435;43.700;-79.318;2023-05-02T09:21:59;97588.64;;;6.99;51.53
64139;BME280;50435;43.700;-79.318;2023-05-02T09:24:28;97591.32;;;7.22;51.46
64139;BME280;50435;43.700;-79.318;2023-05-02T09:26:57;97594.55;;;6.78;51.84
64139;BME280;50435;43.700;-79.318;2023-05-02T09:29:26;97596.51;;;7.15;51.60
64139;BME280;50435;43.700;-79.318;2023-05-02T09:31:54;97602.36;;;7.50;51.93
64139;BME280;50435;43.700;-79.318;2023-05-02T09:34:21;97605.35;;;6.94;51.96
64139;BME280;50435;43.700;-79.318;2023-05-02T09:36:50;97608.41;;;7.53;51.82
64139;BME280;50435;43.700;-79.318;2023-05-02T09:39:20;97613.11;;;7.06;51.75
64139;BME280;50435;43.700;-79.318;2023-05-02T09:41:48;97615.51;;;6.95;51.98
64139;BME280;50435;43.700;-79.318;2023-05-02T09:44:18;97620.34;;;6.91;52.08
64139;BME280;50435;43.700;-79.318;2023-05-02T09:46:47;97620.03;;;7.39;52.09
64139;BME280;50435;43.700;-79.318;2023-05-02T09:49:15;97621.56;;;6.61;52.42
64139;BME280;50435;43.700;-79.318;2023-05-02T09:51:44;97625.34;;;6.98;52.09
64139;BME280;50435;43.700;-79.318;2023-05-02T09:54:12;97630.56;;;6.73;51.62
64139;BME280;50435;43.700;-79.318;2023-05-02T09:56:56;97633.90;;;6.95;52.16
64139;BME280;50435;43.700;-79.318;2023-05-02T09:59:24;97634.44;;;6.89;52.71
64139;BME280;50435;43.700;-79.318;2023-05-02T10:01:55;97636.73;;;7.13;52.78
64139;BME280;50435;43.700;-79.318;2023-05-02T10:04:24;97642.20;;;6.78;52.42
64139;BME280;50435;43.700;-79.318;2023-05-02T10:06:53;97643.87;;;7.00;52.47
64139;BME280;50435;43.700;-79.318;2023-05-02T10:09:21;97646.49;;;6.37;52.36
64139;BME280;50435;43.700;-79.318;2023-05-02T10:11:51;97646.36;;;6.81;52.39
64139;BME280;50435;43.700;-79.318;2023-05-02T10:14:20;97649.21;;;6.68;52.51
64139;BME280;50435;43.700;-79.318;2023-05-02T10:16:54;97655.10;;;6.88;52.48
64139;BME280;50435;43.700;-79.318;2023-05-02T10:19:29;97660.82;;;6.78;52.17
64139;BME280;50435;43.700;-79.318;2023-05-02T10:22:01;97668.91;;;5.84;52.13
64139;BME280;50435;43.700;-79.318;2023-05-02T10:24:31;97673.77;;;6.66;52.30
64139;BME280;50435;43.700;-79.318;2023-05-02T10:26:59;97669.83;;;5.83;52.17
64139;BME280;50435;43.700;-79.318;2023-05-02T10:29:28;97675.43;;;6.60;52.56
64139;BME280;50435;43.700;-79.318;2023-05-02T10:31:56;97680.42;;;6.06;52.57
64139;BME280;50435;43.700;-79.318;2023-05-02T10:34:24;97680.89;;;6.96;52.76
64139;BME280;50435;43.700;-79.318;2023-05-02T10:36:54;97683.25;;;6.71;52.68
64139;BME280;50435;43.700;-79.318;2023-05-02T10:39:22;97691.55;;;6.59;52.55
64139;BME280;50435;43.700;-79.318;2023-05-02T10:41:50;97687.50;;;6.98;52.71
64139;BME280;50435;43.700;-79.318;2023-05-02T10:44:31;97689.03;;;6.25;53.21
64139;BME280;50435;43.700;-79.318;2023-05-02T10:46:59;97693.39;;;5.33;53.06
64139;BME280;50435;43.700;-79.318;2023-05-02T10:49:27;97691.84;;;6.57;52.86
64139;BME280;50435;43.700;-79.318;2023-05-02T10:51:55;97694.26;;;6.23;52.56
64139;BME280;50435;43.700;-79.318;2023-05-02T10:54:24;97697.39;;;6.43;52.62
64139;BME280;50435;43.700;-79.318;2023-05-02T10:57:06;97698.20;;;6.59;52.58
64139;BME280;50435;43.700;-79.318;2023-05-02T10:59:36;97706.80;;;6.32;52.61
64139;BME280;50435;43.700;-79.318;2023-05-02T11:02:04;97713.79;;;5.25;52.40
64139;BME280;50435;43.700;-79.318;2023-05-02T11:05:06;97720.45;;;6.90;52.35
64139;BME280;50435;43.700;-79.318;2023-05-02T11:07:35;97718.24;;;6.67;52.89
64139;BME280;50435;43.700;-79.318;2023-05-02T11:10:30;97725.11;;;5.16;53.02
64139;BME280;50435;43.700;-79.318;2023-05-02T11:12:58;97725.15;;;5.71;52.67
64139;BME280;50435;43.700;-79.318;2023-05-02T11:15:58;97728.85;;;6.36;52.83
64139;BME280;50435;43.700;-79.318;2023-05-02T11:18:25;97732.93;;;6.03;52.94
64139;BME280;50435;43.700;-79.318;2023-05-02T11:21:24;97740.94;;;6.43;52.98
64139;BME280;50435;43.700;-79.318;2023-05-02T11:23:52;97748.62;;;6.18;52.98
64139;BME280;50435;43.700;-79.318;2023-05-02T11:28:38;97751.21;;;4.82;53.32
64139;BME280;50435;43.700;-79.318;2023-05-02T11:31:07;97759.25;;;4.66;53.08
64139;BME280;50435;43.700;-79.318;2023-05-02T11:33:35;97759.21;;;6.41;52.41
64139;BME280;50435;43.700;-79.318;2023-05-02T11:36:04;97765.47;;;5.93;52.44
64139;BME280;50435;43.700;-79.318;2023-05-02T11:38:36;97764.47;;;6.31;53.05
64139;BME280;50435;43.700;-79.318;2023-05-02T11:41:04;97768.54;;;4.36;53.19
64139;BME280;50435;43.700;-79.318;2023-05-02T11:43:32;97766.15;;;6.05;53.02
64139;BME280;50435;43.700;-79.318;2023-05-02T11:46:00;97766.10;;;5.27;52.69
64139;BME280;50435;43.700;-79.318;2023-05-02T11:48:27;97768.24;;;5.95;52.76
64139;BME280;50435;43.700;-79.318;2023-05-02T11:50:56;97765.95;;;6.52;52.56
64139;BME280;50435;43.700;-79.318;2023-05-02T11:53:25;97768.13;;;6.26;52.50
64139;BME280;50435;43.700;-79.318;2023-05-02T11:55:55;97771.06;;;6.42;52.82
64139;BME280;50435;43.700;-79.318;2023-05-02T11:58:24;97775.91;;;6.16;52.68
64139;BME280;50435;43.700;-79.318;2023-05-02T12:00:52;97775.48;;;6.53;52.44
64139;BME280;50435;43.700;-79.318;2023-05-02T12:03:21;97778.96;;;6.12;52.29
64139;BME280;50435;43.700;-79.318;2023-05-02T12:05:49;97779.03;;;6.36;51.96
64139;BME280;50435;43.700;-79.318;2023-05-02T12:08:20;97783.79;;;6.27;51.77
64139;BME280;50435;43.700;-79.318;2023-05-02T12:10:49;97788.72;;;6.56;52.23
64139;BME280;50435;43.700;-79.318;2023-05-02T12:13:17;97792.28;;;6.14;52.72
64139;BME280;50435;43.700;-79.318;2023-05-02T12:15:45;97796.14;;;6.48;52.52
64139;BME280;50435;43.700;-79.318;2023-05-02T12:18:13;97795.11;;;5.55;52.45
64139;BME280;50435;43.700;-79.318;2023-05-02T12:20:40;97793.16;;;6.60;52.17
64139;BME280;50435;43.700;-79.318;2023-05-02T12:23:08;97796.45;;;5.82;52.14
64139;BME280;50435;43.700;-79.318;2023-05-02T12:25:38;97792.77;;;6.26;52.10
64139;BME280;50435;43.700;-79.318;2023-05-02T12:28:06;97798.89;;;4.95;52.66
64139;BME280;50435;43.700;-79.318;2023-05-02T12:30:36;97798.63;;;6.57;52.22
64139;BME280;50435;43.700;-79.318;2023-05-02T12:33:04;97803.46;;;4.89;52.82
64139;BME280;50435;43.700;-79.318;2023-05-02T12:35:33;97799.72;;;6.08;52.77
64139;BME280;50435;43.700;-79.318;2023-05-02T12:38:09;97799.97;;;5.43;52.19
64139;BME280;50435;43.700;-79.318;2023-05-02T12:40:37;97799.07;;;6.36;52.69
64139;BME280;50435;43.700;-79.318;2023-05-02T12:43:05;97796.76;;;4.28;53.23
64139;BME280;50435;43.700;-79.318;2023-05-02T12:45:33;97795.20;;;6.44;52.76
64139;BME280;50435;43.700;-79.318;2023-05-02T12:48:01;97793.18;;;5.55;52.39
64139;BME280;50435;43.700;-79.318;2023-05-02T12:50:36;97797.50;;;6.08;52.88
64139;BME280;50435;43.700;-79.318;2023-05-02T12:53:04;97797.51;;;4.64;52.40
64139;BME280;50435;43.700;-79.318;2023-05-02T12:55:32;97800.41;;;6.37;52.65
64139;BME280;50435;43.700;-79.318;2023-05-02T12:58:01;97803.38;;;5.47;52.66
64139;BME280;50435;43.700;-79.318;2023-05-02T13:00:30;97802.87;;;6.44;52.65
64139;BME280;50435;43.700;-79.318;2023-05-02T13:02:58;97809.72;;;5.49;52.61